Johannes - S. — V2CR9 — position and weather

sailwx.info

Track history (hours):
 
Tides and Currents Weather Stations Pressure Air Temp Water Temp Dewpoint Dewpoint Depression Visibility Wind Speed Wind Dir Waves Ship Positions

Johannes - S.

Last reported at 2017-Oct-19 17:42 UTC. Time now 2017-Oct-20 01:21 UTC.
Position N 26°52' W 079°50'.

Length 210 m; draft 9.4 m.

Type: Cargo ship. MMSI: 305090000.

Date/timePositionNaut miles runAvg speedWind from/ knotsBaromVisibWave heightAir tempDewpointWater temp
2017-Oct-19 17:42N 26°52' W 079°50'1922.0
2017-Oct-19 16:50N 26°33' W 079°53'722.8
2017-Oct-19 16:30N 26°26' W 079°54'1121.5
2017-Oct-19 16:00N 26°15' W 079°54'1122.1
2017-Oct-19 15:30N 26°04' W 079°54'1122.7
2017-Oct-19 15:00N 25°53' W 079°53'1223.2
2017-Oct-19 14:31N 25°41' W 079°53'1122.9
2017-Oct-19 14:00N 25°30' W 079°56'  
2017-Oct-10 13:56N 37°44' W 074°40'1320.8
2017-Oct-10 13:19N 37°57' W 074°40'720.3
2017-Oct-10 12:59N 38°04' W 074°41'1020.8
2017-Oct-10 12:30N 38°14' W 074°40'1220.0
2017-Oct-10 11:56N 38°25' W 074°43'921.1
2017-Oct-10 11:31N 38°32' W 074°49'1020.7
2017-Oct-10 11:00N 38°41' W 074°57'917.5
2017-Oct-10 10:30N 38°48' W 075°04'510.9
2017-Oct-10 10:00N 38°53' W 075°05'1019.6
2017-Oct-10 09:30N 39°02' W 075°10'918.4
2017-Oct-10 09:01N 39°10' W 075°16'918.6
2017-Oct-10 08:30N 39°18' W 075°22'918.9
2017-Oct-10 08:00N 39°25' W 075°31'713.6
2017-Oct-10 07:31N 39°31' W 075°33'612.3
2017-Oct-10 07:01N 39°37' W 075°35'510.8
2017-Oct-10 06:31N 39°42' W 075°31'510.9
2017-Oct-10 06:01N 39°47' W 075°28'5 9.9
2017-Oct-10 05:31N 39°50' W 075°23'510.5
2017-Oct-10 05:00N 39°51' W 075°16'5 9.5
2017-Oct-10 04:30N 39°53' W 075°10'2 4.5
2017-Oct-10 03:58N 39°54' W 075°08'0 0.0
2017-Oct-10 03:28N 39°54' W 075°08'0 0.0
2017-Oct-10 02:58N 39°54' W 075°08'0 0.0
2017-Oct-10 02:28N 39°54' W 075°08'0 0.0
2017-Oct-10 01:58N 39°54' W 075°08'0 0.0
2017-Oct-10 01:28N 39°54' W 075°08'0 0.0
2017-Oct-10 00:58N 39°54' W 075°08'0 0.0
2017-Oct-10 00:28N 39°54' W 075°08'0 0.0
2017-Oct-09 23:58N 39°54' W 075°08'0 0.0
2017-Oct-09 23:28N 39°54' W 075°08'0 0.0
2017-Oct-09 22:58N 39°54' W 075°08'0 0.0
2017-Oct-09 22:28N 39°54' W 075°08'0 0.0
2017-Oct-09 21:58N 39°54' W 075°08'0 0.0
2017-Oct-09 21:28N 39°54' W 075°08'0 0.0
2017-Oct-09 20:58N 39°54' W 075°08'0 0.0
2017-Oct-09 20:28N 39°54' W 075°08'0 0.0
2017-Oct-09 19:58N 39°54' W 075°08'0 0.0
2017-Oct-09 19:28N 39°54' W 075°08'0 0.0
2017-Oct-09 18:58N 39°54' W 075°08'0 0.0
2017-Oct-09 18:28N 39°54' W 075°08'0 0.0
2017-Oct-09 17:58N 39°54' W 075°08'  
Track history (hours):
 
Tides and Currents Weather Stations Pressure Air Temp Water Temp Dewpoint Dewpoint Depression Visibility Wind Speed Wind Dir Waves Ship Positions

Johannes - S.

Last reported at 2017-Oct-19 17:42 UTC. Time now 2017-Oct-20 01:21 UTC.
Position N 26°52' W 079°50'.

Length 210 m; draft 9.4 m.

Type: Cargo ship. MMSI: 305090000.

Date/timePositionNaut miles runAvg speedWind from/ knotsBaromVisibWave heightAir tempDewpointWater temp
2017-Oct-19 17:42N 26°52' W 079°50'1922.0
2017-Oct-19 16:50N 26°33' W 079°53'722.8
2017-Oct-19 16:30N 26°26' W 079°54'1121.5
2017-Oct-19 16:00N 26°15' W 079°54'1122.1
2017-Oct-19 15:30N 26°04' W 079°54'1122.7
2017-Oct-19 15:00N 25°53' W 079°53'1223.2
2017-Oct-19 14:31N 25°41' W 079°53'1122.9
2017-Oct-19 14:00N 25°30' W 079°56'  
2017-Oct-10 13:56N 37°44' W 074°40'1320.8
2017-Oct-10 13:19N 37°57' W 074°40'720.3
2017-Oct-10 12:59N 38°04' W 074°41'1020.8
2017-Oct-10 12:30N 38°14' W 074°40'1220.0
2017-Oct-10 11:56N 38°25' W 074°43'921.1
2017-Oct-10 11:31N 38°32' W 074°49'1020.7
2017-Oct-10 11:00N 38°41' W 074°57'917.5
2017-Oct-10 10:30N 38°48' W 075°04'510.9
2017-Oct-10 10:00N 38°53' W 075°05'1019.6
2017-Oct-10 09:30N 39°02' W 075°10'918.4
2017-Oct-10 09:01N 39°10' W 075°16'918.6
2017-Oct-10 08:30N 39°18' W 075°22'918.9
2017-Oct-10 08:00N 39°25' W 075°31'713.6
2017-Oct-10 07:31N 39°31' W 075°33'612.3
2017-Oct-10 07:01N 39°37' W 075°35'510.8
2017-Oct-10 06:31N 39°42' W 075°31'510.9
2017-Oct-10 06:01N 39°47' W 075°28'5 9.9
2017-Oct-10 05:31N 39°50' W 075°23'510.5
2017-Oct-10 05:00N 39°51' W 075°16'5 9.5
2017-Oct-10 04:30N 39°53' W 075°10'2 4.5
2017-Oct-10 03:58N 39°54' W 075°08'0 0.0
2017-Oct-10 03:28N 39°54' W 075°08'0 0.0
2017-Oct-10 02:58N 39°54' W 075°08'0 0.0
2017-Oct-10 02:28N 39°54' W 075°08'0 0.0
2017-Oct-10 01:58N 39°54' W 075°08'0 0.0
2017-Oct-10 01:28N 39°54' W 075°08'0 0.0
2017-Oct-10 00:58N 39°54' W 075°08'0 0.0
2017-Oct-10 00:28N 39°54' W 075°08'0 0.0
2017-Oct-09 23:58N 39°54' W 075°08'0 0.0
2017-Oct-09 23:28N 39°54' W 075°08'0 0.0
2017-Oct-09 22:58N 39°54' W 075°08'0 0.0
2017-Oct-09 22:28N 39°54' W 075°08'0 0.0
2017-Oct-09 21:58N 39°54' W 075°08'0 0.0
2017-Oct-09 21:28N 39°54' W 075°08'0 0.0
2017-Oct-09 20:58N 39°54' W 075°08'0 0.0
2017-Oct-09 20:28N 39°54' W 075°08'0 0.0
2017-Oct-09 19:58N 39°54' W 075°08'0 0.0
2017-Oct-09 19:28N 39°54' W 075°08'0 0.0
2017-Oct-09 18:58N 39°54' W 075°08'0 0.0
2017-Oct-09 18:28N 39°54' W 075°08'0 0.0
2017-Oct-09 17:58N 39°54' W 075°08'  

Dump ship's entire track history